sensor_id;sensor_type;location;lat;lon;timestamp;P1;durP1;ratioP1;P2;durP2;ratioP2
7031;SDS011;3557;48.880;8.328;2023-06-14T00:01:46;3.85;;;3.25;;
7031;SDS011;3557;48.880;8.328;2023-06-14T00:04:15;3.63;;;3.20;;
7031;SDS011;3557;48.880;8.328;2023-06-14T00:06:43;5.28;;;3.10;;
7031;SDS011;3557;48.880;8.328;2023-06-14T00:09:11;4.55;;;3.22;;
7031;SDS011;3557;48.880;8.328;2023-06-14T00:11:39;5.43;;;3.42;;
7031;SDS011;3557;48.880;8.328;2023-06-14T00:14:07;3.85;;;3.13;;
7031;SDS011;3557;48.880;8.328;2023-06-14T00:16:34;3.33;;;3.03;;
7031;SDS011;3557;48.880;8.328;2023-06-14T00:19:04;4.05;;;3.30;;
7031;SDS011;3557;48.880;8.328;2023-06-14T00:21:32;5.82;;;3.20;;
7031;SDS011;3557;48.880;8.328;2023-06-14T00:24:00;4.75;;;3.33;;
7031;SDS011;3557;48.880;8.328;2023-06-14T00:26:28;4.90;;;3.60;;
7031;SDS011;3557;48.880;8.328;2023-06-14T00:28:55;5.07;;;3.17;;
7031;SDS011;3557;48.880;8.328;2023-06-14T00:31:25;6.15;;;3.25;;
7031;SDS011;3557;48.880;8.328;2023-06-14T00:33:53;3.47;;;3.10;;
7031;SDS011;3557;48.880;8.328;2023-06-14T00:36:20;3.72;;;3.03;;
7031;SDS011;3557;48.880;8.328;2023-06-14T00:38:49;5.70;;;3.35;;
7031;SDS011;3557;48.880;8.328;2023-06-14T00:41:16;6.10;;;3.75;;
7031;SDS011;3557;48.880;8.328;2023-06-14T00:43:44;4.75;;;3.17;;
7031;SDS011;3557;48.880;8.328;2023-06-14T00:46:11;4.50;;;3.30;;
7031;SDS011;3557;48.880;8.328;2023-06-14T00:48:39;3.60;;;3.22;;
7031;SDS011;3557;48.880;8.328;2023-06-14T00:51:06;3.80;;;3.30;;
7031;SDS011;3557;48.880;8.328;2023-06-14T00:53:34;3.65;;;3.30;;
7031;SDS011;3557;48.880;8.328;2023-06-14T00:56:03;3.72;;;3.25;;
7031;SDS011;3557;48.880;8.328;2023-06-14T00:58:30;3.97;;;3.38;;
7031;SDS011;3557;48.880;8.328;2023-06-14T01:01:00;5.32;;;3.20;;
7031;SDS011;3557;48.880;8.328;2023-06-14T01:03:27;3.65;;;3.25;;
7031;SDS011;3557;48.880;8.328;2023-06-14T01:05:59;4.20;;;3.53;;
7031;SDS011;3557;48.880;8.328;2023-06-14T01:08:39;3.95;;;3.20;;
7031;SDS011;3557;48.880;8.328;2023-06-14T01:11:16;3.45;;;3.15;;
7031;SDS011;3557;48.880;8.328;2023-06-14T01:13:48;3.38;;;3.08;;
7031;SDS011;3557;48.880;8.328;2023-06-14T01:16:17;4.07;;;3.33;;
7031;SDS011;3557;48.880;8.328;2023-06-14T01:18:45;5.25;;;3.78;;
7031;SDS011;3557;48.880;8.328;2023-06-14T01:21:21;3.78;;;3.05;;
7031;SDS011;3557;48.880;8.328;2023-06-14T01:23:50;3.85;;;3.20;;
7031;SDS011;3557;48.880;8.328;2023-06-14T01:26:20;6.65;;;3.40;;
7031;SDS011;3557;48.880;8.328;2023-06-14T01:28:48;5.65;;;3.30;;
7031;SDS011;3557;48.880;8.328;2023-06-14T01:31:18;5.95;;;3.42;;
7031;SDS011;3557;48.880;8.328;2023-06-14T01:33:47;5.13;;;3.40;;
7031;SDS011;3557;48.880;8.328;2023-06-14T01:36:16;4.20;;;3.47;;
7031;SDS011;3557;48.880;8.328;2023-06-14T01:38:44;5.65;;;3.53;;
7031;SDS011;3557;48.880;8.328;2023-06-14T01:41:16;4.88;;;3.40;;
7031;SDS011;3557;48.880;8.328;2023-06-14T01:43:45;5.28;;;3.47;;
7031;SDS011;3557;48.880;8.328;2023-06-14T01:46:13;4.43;;;3.47;;
7031;SDS011;3557;48.880;8.328;2023-06-14T01:48:41;5.65;;;3.50;;
7031;SDS011;3557;48.880;8.328;2023-06-14T01:51:09;5.53;;;3.65;;
7031;SDS011;3557;48.880;8.328;2023-06-14T01:53:37;4.53;;;3.25;;
7031;SDS011;3557;48.880;8.328;2023-06-14T01:56:05;5.05;;;3.40;;
7031;SDS011;3557;48.880;8.328;2023-06-14T01:58:34;5.32;;;3.80;;
7031;SDS011;3557;48.880;8.328;2023-06-14T02:01:02;5.88;;;3.58;;
7031;SDS011;3557;48.880;8.328;2023-06-14T02:03:30;6.25;;;3.67;;
7031;SDS011;3557;48.880;8.328;2023-06-14T02:05:57;7.55;;;3.60;;
7031;SDS011;3557;48.880;8.328;2023-06-14T02:08:25;5.15;;;3.40;;
7031;SDS011;3557;48.880;8.328;2023-06-14T02:10:52;4.10;;;3.30;;
7031;SDS011;3557;48.880;8.328;2023-06-14T02:13:20;4.05;;;3.45;;
7031;SDS011;3557;48.880;8.328;2023-06-14T02:15:51;8.73;;;3.65;;
7031;SDS011;3557;48.880;8.328;2023-06-14T02:18:20;3.80;;;3.40;;
7031;SDS011;3557;48.880;8.328;2023-06-14T02:20:48;6.15;;;3.58;;
7031;SDS011;3557;48.880;8.328;2023-06-14T02:23:16;4.35;;;3.83;;
7031;SDS011;3557;48.880;8.328;2023-06-14T02:25:43;5.72;;;3.88;;
7031;SDS011;3557;48.880;8.328;2023-06-14T02:28:11;6.40;;;3.28;;
7031;SDS011;3557;48.880;8.328;2023-06-14T02:30:38;5.45;;;3.70;;
7031;SDS011;3557;48.880;8.328;2023-06-14T02:33:07;9.27;;;3.65;;
7031;SDS011;3557;48.880;8.328;2023-06-14T02:35:39;5.80;;;4.13;;
7031;SDS011;3557;48.880;8.328;2023-06-14T02:38:06;3.97;;;3.60;;
7031;SDS011;3557;48.880;8.328;2023-06-14T02:40:33;6.70;;;3.78;;
7031;SDS011;3557;48.880;8.328;2023-06-14T02:43:01;8.70;;;3.70;;
7031;SDS011;3557;48.880;8.328;2023-06-14T02:45:28;5.25;;;3.63;;
7031;SDS011;3557;48.880;8.328;2023-06-14T02:47:55;5.95;;;3.42;;
7031;SDS011;3557;48.880;8.328;2023-06-14T02:50:24;4.57;;;3.70;;
7031;SDS011;3557;48.880;8.328;2023-06-14T02:52:53;3.90;;;3.50;;
7031;SDS011;3557;48.880;8.328;2023-06-14T02:55:22;6.53;;;3.72;;
7031;SDS011;3557;48.880;8.328;2023-06-14T02:57:49;5.32;;;3.60;;
7031;SDS011;3557;48.880;8.328;2023-06-14T03:00:18;12.65;;;3.88;;
7031;SDS011;3557;48.880;8.328;2023-06-14T03:02:47;5.75;;;3.55;;
7031;SDS011;3557;48.880;8.328;2023-06-14T03:05:16;4.80;;;3.63;;
7031;SDS011;3557;48.880;8.328;2023-06-14T03:07:48;6.38;;;3.53;;
7031;SDS011;3557;48.880;8.328;2023-06-14T03:10:17;4.75;;;3.47;;
7031;SDS011;3557;48.880;8.328;2023-06-14T03:12:45;4.75;;;3.30;;
7031;SDS011;3557;48.880;8.328;2023-06-14T03:15:13;5.53;;;3.53;;
7031;SDS011;3557;48.880;8.328;2023-06-14T03:17:45;6.63;;;3.30;;
7031;SDS011;3557;48.880;8.328;2023-06-14T03:20:15;6.97;;;3.70;;
7031;SDS011;3557;48.880;8.328;2023-06-14T03:22:42;8.85;;;3.72;;
7031;SDS011;3557;48.880;8.328;2023-06-14T03:25:15;5.63;;;3.50;;
7031;SDS011;3557;48.880;8.328;2023-06-14T03:27:46;5.22;;;3.47;;
7031;SDS011;3557;48.880;8.328;2023-06-14T03:30:14;7.78;;;3.47;;
7031;SDS011;3557;48.880;8.328;2023-06-14T03:32:44;5.10;;;3.70;;
7031;SDS011;3557;48.880;8.328;2023-06-14T03:35:11;5.88;;;3.70;;
7031;SDS011;3557;48.880;8.328;2023-06-14T03:37:42;5.18;;;3.60;;
7031;SDS011;3557;48.880;8.328;2023-06-14T03:40:11;4.20;;;3.65;;
7031;SDS011;3557;48.880;8.328;2023-06-14T03:42:44;4.43;;;3.70;;
7031;SDS011;3557;48.880;8.328;2023-06-14T03:45:12;5.45;;;4.22;;
7031;SDS011;3557;48.880;8.328;2023-06-14T03:47:39;3.70;;;3.40;;
7031;SDS011;3557;48.880;8.328;2023-06-14T03:50:07;4.53;;;3.60;;
7031;SDS011;3557;48.880;8.328;2023-06-14T03:52:36;5.78;;;3.78;;
7031;SDS011;3557;48.880;8.328;2023-06-14T03:55:04;4.55;;;3.67;;
7031;SDS011;3557;48.880;8.328;2023-06-14T03:57:35;6.22;;;3.90;;
7031;SDS011;3557;48.880;8.328;2023-06-14T04:00:07;5.35;;;3.53;;
7031;SDS011;3557;48.880;8.328;2023-06-14T04:02:39;3.72;;;3.35;;
7031;SDS011;3557;48.880;8.328;2023-06-14T04:05:09;6.10;;;3.70;;
7031;SDS011;3557;48.880;8.328;2023-06-14T04:07:42;4.07;;;3.45;;
7031;SDS011;3557;48.880;8.328;2023-06-14T04:10:11;6.75;;;3.65;;
7031;SDS011;3557;48.880;8.328;2023-06-14T04:12:40;5.35;;;3.55;;
7031;SDS011;3557;48.880;8.328;2023-06-14T04:15:08;4.32;;;3.53;;
7031;SDS011;3557;48.880;8.328;2023-06-14T04:17:36;4.22;;;3.10;;
7031;SDS011;3557;48.880;8.328;2023-06-14T04:20:05;3.85;;;3.55;;
7031;SDS011;3557;48.880;8.328;2023-06-14T04:22:35;5.43;;;3.42;;
7031;SDS011;3557;48.880;8.328;2023-06-14T04:25:04;4.68;;;3.00;;
7031;SDS011;3557;48.880;8.328;2023-06-14T04:27:33;4.10;;;3.22;;
7031;SDS011;3557;48.880;8.328;2023-06-14T04:30:04;4.15;;;3.30;;
7031;SDS011;3557;48.880;8.328;2023-06-14T04:32:37;3.58;;;3.20;;
7031;SDS011;3557;48.880;8.328;2023-06-14T04:35:06;4.32;;;3.08;;
7031;SDS011;3557;48.880;8.328;2023-06-14T04:37:37;3.83;;;2.97;;
7031;SDS011;3557;48.880;8.328;2023-06-14T04:40:07;5.30;;;3.33;;
7031;SDS011;3557;48.880;8.328;2023-06-14T04:42:37;5.93;;;3.28;;
7031;SDS011;3557;48.880;8.328;2023-06-14T04:45:08;4.80;;;3.33;;
7031;SDS011;3557;48.880;8.328;2023-06-14T04:47:39;4.38;;;2.97;;
7031;SDS011;3557;48.880;8.328;2023-06-14T04:50:07;5.72;;;3.17;;
7031;SDS011;3557;48.880;8.328;2023-06-14T04:52:38;5.35;;;3.20;;
7031;SDS011;3557;48.880;8.328;2023-06-14T04:55:07;6.22;;;3.22;;
7031;SDS011;3557;48.880;8.328;2023-06-14T04:57:35;4.70;;;3.17;;
7031;SDS011;3557;48.880;8.328;2023-06-14T05:00:04;7.57;;;3.13;;
7031;SDS011;3557;48.880;8.328;2023-06-14T05:02:36;6.55;;;3.47;;
7031;SDS011;3557;48.880;8.328;2023-06-14T05:05:06;4.43;;;3.20;;
7031;SDS011;3557;48.880;8.328;2023-06-14T05:07:34;3.90;;;3.17;;
7031;SDS011;3557;48.880;8.328;2023-06-14T05:10:02;4.47;;;3.20;;
7031;SDS011;3557;48.880;8.328;2023-06-14T05:12:31;4.93;;;3.17;;
7031;SDS011;3557;48.880;8.328;2023-06-14T05:14:59;5.60;;;3.08;;
7031;SDS011;3557;48.880;8.328;2023-06-14T05:17:28;5.65;;;2.97;;
7031;SDS011;3557;48.880;8.328;2023-06-14T05:19:56;10.07;;;3.30;;
7031;SDS011;3557;48.880;8.328;2023-06-14T05:22:23;7.05;;;3.20;;
7031;SDS011;3557;48.880;8.328;2023-06-14T05:24:51;5.57;;;3.35;;
7031;SDS011;3557;48.880;8.328;2023-06-14T05:27:18;7.07;;;3.40;;
7031;SDS011;3557;48.880;8.328;2023-06-14T05:29:45;8.52;;;3.42;;
7031;SDS011;3557;48.880;8.328;2023-06-14T05:32:13;7.28;;;3.30;;
7031;SDS011;3557;48.880;8.328;2023-06-14T05:34:42;6.95;;;3.17;;
7031;SDS011;3557;48.880;8.328;2023-06-14T05:37:10;5.45;;;3.13;;
7031;SDS011;3557;48.880;8.328;2023-06-14T05:39:38;7.13;;;2.90;;
7031;SDS011;3557;48.880;8.328;2023-06-14T05:42:05;7.70;;;2.97;;
7031;SDS011;3557;48.880;8.328;2023-06-14T05:44:33;5.30;;;3.25;;
7031;SDS011;3557;48.880;8.328;2023-06-14T05:47:01;7.43;;;3.35;;
7031;SDS011;3557;48.880;8.328;2023-06-14T05:49:28;5.15;;;3.40;;
7031;SDS011;3557;48.880;8.328;2023-06-14T05:51:57;9.27;;;3.50;;
7031;SDS011;3557;48.880;8.328;2023-06-14T05:54:24;8.13;;;3.42;;
7031;SDS011;3557;48.880;8.328;2023-06-14T05:56:52;8.52;;;3.60;;
7031;SDS011;3557;48.880;8.328;2023-06-14T05:59:19;7.53;;;3.35;;
7031;SDS011;3557;48.880;8.328;2023-06-14T06:01:46;8.88;;;3.10;;
7031;SDS011;3557;48.880;8.328;2023-06-14T06:04:14;5.13;;;3.13;;
7031;SDS011;3557;48.880;8.328;2023-06-14T06:06:41;8.27;;;3.28;;
7031;SDS011;3557;48.880;8.328;2023-06-14T06:09:10;6.32;;;3.40;;
7031;SDS011;3557;48.880;8.328;2023-06-14T06:11:37;5.90;;;3.15;;
7031;SDS011;3557;48.880;8.328;2023-06-14T06:14:04;4.35;;;3.10;;
7031;SDS011;3557;48.880;8.328;2023-06-14T06:16:32;6.45;;;3.20;;
7031;SDS011;3557;48.880;8.328;2023-06-14T06:19:00;6.38;;;3.00;;
7031;SDS011;3557;48.880;8.328;2023-06-14T06:21:28;7.30;;;3.00;;
7031;SDS011;3557;48.880;8.328;2023-06-14T06:23:55;7.38;;;3.42;;
7031;SDS011;3557;48.880;8.328;2023-06-14T06:26:24;8.93;;;3.03;;
7031;SDS011;3557;48.880;8.328;2023-06-14T06:28:51;7.50;;;3.38;;
7031;SDS011;3557;48.880;8.328;2023-06-14T06:31:19;5.75;;;3.10;;
7031;SDS011;3557;48.880;8.328;2023-06-14T06:33:47;6.00;;;3.25;;
7031;SDS011;3557;48.880;8.328;2023-06-14T06:36:14;8.52;;;3.08;;
7031;SDS011;3557;48.880;8.328;2023-06-14T06:38:42;5.22;;;3.50;;
7031;SDS011;3557;48.880;8.328;2023-06-14T06:41:09;5.85;;;2.90;;
7031;SDS011;3557;48.880;8.328;2023-06-14T06:43:38;7.38;;;3.20;;
7031;SDS011;3557;48.880;8.328;2023-06-14T06:46:07;9.45;;;3.67;;
7031;SDS011;3557;48.880;8.328;2023-06-14T06:48:35;6.40;;;3.08;;
7031;SDS011;3557;48.880;8.328;2023-06-14T06:51:02;6.72;;;3.28;;
7031;SDS011;3557;48.880;8.328;2023-06-14T06:53:30;5.90;;;3.25;;
7031;SDS011;3557;48.880;8.328;2023-06-14T06:55:58;5.90;;;3.58;;
7031;SDS011;3557;48.880;8.328;2023-06-14T06:58:25;6.38;;;3.38;;
7031;SDS011;3557;48.880;8.328;2023-06-14T07:00:53;5.85;;;3.40;;
7031;SDS011;3557;48.880;8.328;2023-06-14T07:03:21;6.60;;;3.38;;
7031;SDS011;3557;48.880;8.328;2023-06-14T07:05:48;3.85;;;3.13;;
7031;SDS011;3557;48.880;8.328;2023-06-14T07:08:16;6.95;;;3.60;;
7031;SDS011;3557;48.880;8.328;2023-06-14T07:10:43;6.22;;;3.20;;
7031;SDS011;3557;48.880;8.328;2023-06-14T07:13:11;4.95;;;3.40;;
7031;SDS011;3557;48.880;8.328;2023-06-14T07:15:39;3.67;;;3.30;;
7031;SDS011;3557;48.880;8.328;2023-06-14T07:18:07;5.45;;;3.35;;
7031;SDS011;3557;48.880;8.328;2023-06-14T07:20:35;5.78;;;3.60;;
7031;SDS011;3557;48.880;8.328;2023-06-14T07:23:03;4.55;;;3.40;;
7031;SDS011;3557;48.880;8.328;2023-06-14T07:25:31;4.45;;;3.47;;
7031;SDS011;3557;48.880;8.328;2023-06-14T07:27:58;7.45;;;3.45;;
7031;SDS011;3557;48.880;8.328;2023-06-14T07:30:26;5.03;;;3.42;;
7031;SDS011;3557;48.880;8.328;2023-06-14T07:32:55;5.05;;;3.40;;
7031;SDS011;3557;48.880;8.328;2023-06-14T07:35:24;5.28;;;3.65;;
7031;SDS011;3557;48.880;8.328;2023-06-14T07:37:51;4.35;;;3.53;;
7031;SDS011;3557;48.880;8.328;2023-06-14T07:40:18;8.82;;;4.18;;
7031;SDS011;3557;48.880;8.328;2023-06-14T07:42:46;5.80;;;3.40;;
7031;SDS011;3557;48.880;8.328;2023-06-14T07:45:14;6.53;;;3.63;;
7031;SDS011;3557;48.880;8.328;2023-06-14T07:47:42;5.95;;;3.50;;
7031;SDS011;3557;48.880;8.328;2023-06-14T07:50:09;6.88;;;3.40;;
7031;SDS011;3557;48.880;8.328;2023-06-14T07:52:40;5.90;;;3.30;;
7031;SDS011;3557;48.880;8.328;2023-06-14T07:55:07;6.38;;;3.22;;
7031;SDS011;3557;48.880;8.328;2023-06-14T07:57:35;5.00;;;3.22;;
7031;SDS011;3557;48.880;8.328;2023-06-14T08:00:02;6.70;;;3.47;;
7031;SDS011;3557;48.880;8.328;2023-06-14T08:02:37;5.75;;;3.22;;
7031;SDS011;3557;48.880;8.328;2023-06-14T08:05:04;6.22;;;3.58;;
7031;SDS011;3557;48.880;8.328;2023-06-14T08:07:33;4.03;;;3.53;;
7031;SDS011;3557;48.880;8.328;2023-06-14T08:10:02;8.85;;;3.60;;
7031;SDS011;3557;48.880;8.328;2023-06-14T08:12:30;6.65;;;3.45;;
7031;SDS011;3557;48.880;8.328;2023-06-14T08:14:57;5.85;;;3.83;;
7031;SDS011;3557;48.880;8.328;2023-06-14T08:17:25;5.90;;;3.50;;
7031;SDS011;3557;48.880;8.328;2023-06-14T08:19:52;15.68;;;4.53;;
7031;SDS011;3557;48.880;8.328;2023-06-14T08:22:22;15.95;;;4.68;;
7031;SDS011;3557;48.880;8.328;2023-06-14T08:24:51;14.93;;;4.30;;
7031;SDS011;3557;48.880;8.328;2023-06-14T08:27:20;7.38;;;3.50;;
7031;SDS011;3557;48.880;8.328;2023-06-14T08:29:48;10.48;;;3.50;;
7031;SDS011;3557;48.880;8.328;2023-06-14T08:32:16;5.03;;;3.60;;
7031;SDS011;3557;48.880;8.328;2023-06-14T08:34:43;5.53;;;3.20;;
7031;SDS011;3557;48.880;8.328;2023-06-14T08:37:11;9.50;;;3.47;;
7031;SDS011;3557;48.880;8.328;2023-06-14T08:39:38;5.97;;;3.70;;
7031;SDS011;3557;48.880;8.328;2023-06-14T08:42:06;6.68;;;3.50;;
7031;SDS011;3557;48.880;8.328;2023-06-14T08:44:36;10.30;;;3.55;;
7031;SDS011;3557;48.880;8.328;2023-06-14T08:47:04;3.53;;;3.20;;
7031;SDS011;3557;48.880;8.328;2023-06-14T08:49:33;7.65;;;3.45;;
7031;SDS011;3557;48.880;8.328;2023-06-14T08:52:03;7.97;;;3.55;;
7031;SDS011;3557;48.880;8.328;2023-06-14T08:54:32;8.55;;;3.10;;
7031;SDS011;3557;48.880;8.328;2023-06-14T08:57:01;6.82;;;3.15;;
7031;SDS011;3557;48.880;8.328;2023-06-14T08:59:32;5.32;;;3.30;;
7031;SDS011;3557;48.880;8.328;2023-06-14T09:02:05;4.38;;;3.08;;
7031;SDS011;3557;48.880;8.328;2023-06-14T09:04:33;6.65;;;3.33;;
7031;SDS011;3557;48.880;8.328;2023-06-14T09:07:01;6.88;;;3.20;;
7031;SDS011;3557;48.880;8.328;2023-06-14T09:09:31;6.05;;;3.38;;
7031;SDS011;3557;48.880;8.328;2023-06-14T09:11:59;10.63;;;3.03;;
7031;SDS011;3557;48.880;8.328;2023-06-14T09:14:27;5.03;;;3.10;;
7031;SDS011;3557;48.880;8.328;2023-06-14T09:16:54;5.22;;;3.40;;
7031;SDS011;3557;48.880;8.328;2023-06-14T09:19:23;5.50;;;3.30;;
7031;SDS011;3557;48.880;8.328;2023-06-14T09:21:52;6.47;;;3.25;;
7031;SDS011;3557;48.880;8.328;2023-06-14T09:24:20;6.18;;;3.20;;
7031;SDS011;3557;48.880;8.328;2023-06-14T09:26:50;6.72;;;3.38;;
7031;SDS011;3557;48.880;8.328;2023-06-14T09:29:18;6.90;;;2.83;;
7031;SDS011;3557;48.880;8.328;2023-06-14T09:31:45;7.53;;;3.20;;
7031;SDS011;3557;48.880;8.328;2023-06-14T09:34:13;6.22;;;3.28;;
7031;SDS011;3557;48.880;8.328;2023-06-14T09:36:42;4.05;;;3.00;;
7031;SDS011;3557;48.880;8.328;2023-06-14T09:39:10;3.60;;;3.30;;
7031;SDS011;3557;48.880;8.328;2023-06-14T09:41:38;5.18;;;3.08;;
7031;SDS011;3557;48.880;8.328;2023-06-14T09:44:08;7.53;;;3.30;;
7031;SDS011;3557;48.880;8.328;2023-06-14T09:46:36;4.75;;;2.90;;
7031;SDS011;3557;48.880;8.328;2023-06-14T09:49:04;7.05;;;3.40;;
7031;SDS011;3557;48.880;8.328;2023-06-14T09:51:32;6.20;;;2.90;;
7031;SDS011;3557;48.880;8.328;2023-06-14T09:54:02;5.22;;;2.83;;
7031;SDS011;3557;48.880;8.328;2023-06-14T09:56:31;6.28;;;3.13;;
7031;SDS011;3557;48.880;8.328;2023-06-14T09:59:00;10.00;;;3.05;;
7031;SDS011;3557;48.880;8.328;2023-06-14T10:01:32;8.05;;;3.17;;
7031;SDS011;3557;48.880;8.328;2023-06-14T10:04:01;7.57;;;3.20;;
7031;SDS011;3557;48.880;8.328;2023-06-14T10:06:30;4.30;;;2.80;;
7031;SDS011;3557;48.880;8.328;2023-06-14T10:08:59;5.85;;;3.03;;
7031;SDS011;3557;48.880;8.328;2023-06-14T10:11:30;6.65;;;3.05;;
7031;SDS011;3557;48.880;8.328;2023-06-14T10:13:58;6.97;;;3.10;;
7031;SDS011;3557;48.880;8.328;2023-06-14T10:16:27;6.43;;;2.90;;
7031;SDS011;3557;48.880;8.328;2023-06-14T10:19:00;9.80;;;3.10;;
7031;SDS011;3557;48.880;8.328;2023-06-14T10:21:35;3.78;;;3.00;;
7031;SDS011;3557;48.880;8.328;2023-06-14T10:24:10;7.82;;;3.20;;
7031;SDS011;3557;48.880;8.328;2023-06-14T10:26:49;4.47;;;3.08;;
7031;SDS011;3557;48.880;8.328;2023-06-14T10:29:17;4.78;;;2.92;;
7031;SDS011;3557;48.880;8.328;2023-06-14T10:31:46;6.82;;;2.85;;
7031;SDS011;3557;48.880;8.328;2023-06-14T10:34:21;7.90;;;3.33;;
7031;SDS011;3557;48.880;8.328;2023-06-14T10:37:03;7.45;;;3.00;;
7031;SDS011;3557;48.880;8.328;2023-06-14T10:39:33;7.82;;;3.33;;
7031;SDS011;3557;48.880;8.328;2023-06-14T10:42:05;6.25;;;2.88;;
7031;SDS011;3557;48.880;8.328;2023-06-14T10:44:33;9.52;;;3.00;;
7031;SDS011;3557;48.880;8.328;2023-06-14T10:47:07;3.20;;;2.90;;
7031;SDS011;3557;48.880;8.328;2023-06-14T10:49:49;4.50;;;3.05;;
7031;SDS011;3557;48.880;8.328;2023-06-14T10:52:20;6.15;;;3.20;;
7031;SDS011;3557;48.880;8.328;2023-06-14T10:55:04;3.67;;;2.88;;
7031;SDS011;3557;48.880;8.328;2023-06-14T10:57:38;3.80;;;3.38;;
7031;SDS011;3557;48.880;8.328;2023-06-14T11:00:08;5.75;;;3.13;;
7031;SDS011;3557;48.880;8.328;2023-06-14T11:06:09;7.28;;;3.03;;
7031;SDS011;3557;48.880;8.328;2023-06-14T11:08:52;7.88;;;3.03;;
7031;SDS011;3557;48.880;8.328;2023-06-14T11:11:47;6.20;;;3.00;;
7031;SDS011;3557;48.880;8.328;2023-06-14T11:14:15;7.65;;;3.05;;
7031;SDS011;3557;48.880;8.328;2023-06-14T11:16:47;6.78;;;3.10;;
7031;SDS011;3557;48.880;8.328;2023-06-14T11:19:15;3.15;;;2.70;;
7031;SDS011;3557;48.880;8.328;2023-06-14T11:21:46;10.02;;;2.85;;
7031;SDS011;3557;48.880;8.328;2023-06-14T11:24:14;6.45;;;3.10;;
7031;SDS011;3557;48.880;8.328;2023-06-14T11:26:42;5.10;;;2.72;;
7031;SDS011;3557;48.880;8.328;2023-06-14T11:29:11;4.00;;;2.80;;
7031;SDS011;3557;48.880;8.328;2023-06-14T11:31:42;6.75;;;2.70;;
7031;SDS011;3557;48.880;8.328;2023-06-14T11:34:11;7.05;;;2.90;;
7031;SDS011;3557;48.880;8.328;2023-06-14T11:36:39;4.20;;;2.80;;
7031;SDS011;3557;48.880;8.328;2023-06-14T11:39:07;7.13;;;2.88;;
7031;SDS011;3557;48.880;8.328;2023-06-14T11:41:36;10.25;;;2.85;;
7031;SDS011;3557;48.880;8.328;2023-06-14T11:44:04;6.13;;;2.92;;
7031;SDS011;3557;48.880;8.328;2023-06-14T11:46:34;11.95;;;3.60;;
7031;SDS011;3557;48.880;8.328;2023-06-14T11:49:03;5.80;;;3.08;;
7031;SDS011;3557;48.880;8.328;2023-06-14T11:51:34;4.65;;;2.90;;
7031;SDS011;3557;48.880;8.328;2023-06-14T11:54:05;5.88;;;3.03;;
7031;SDS011;3557;48.880;8.328;2023-06-14T11:56:36;3.00;;;2.70;;
7031;SDS011;3557;48.880;8.328;2023-06-14T11:59:06;8.05;;;2.90;;
7031;SDS011;3557;48.880;8.328;2023-06-14T12:01:39;3.97;;;2.90;;
7031;SDS011;3557;48.880;8.328;2023-06-14T12:04:11;7.05;;;2.85;;
7031;SDS011;3557;48.880;8.328;2023-06-14T12:06:40;6.22;;;3.08;;
7031;SDS011;3557;48.880;8.328;2023-06-14T12:09:09;2.80;;;2.50;;
7031;SDS011;3557;48.880;8.328;2023-06-14T12:11:43;5.63;;;3.00;;
7031;SDS011;3557;48.880;8.328;2023-06-14T12:14:12;4.45;;;2.90;;
7031;SDS011;3557;48.880;8.328;2023-06-14T12:16:44;5.70;;;3.10;;
7031;SDS011;3557;48.880;8.328;2023-06-14T12:19:16;7.43;;;3.13;;
7031;SDS011;3557;48.880;8.328;2023-06-14T12:21:53;5.43;;;3.00;;
7031;SDS011;3557;48.880;8.328;2023-06-14T12:24:22;5.57;;;2.78;;
7031;SDS011;3557;48.880;8.328;2023-06-14T12:26:57;5.32;;;3.10;;
7031;SDS011;3557;48.880;8.328;2023-06-14T12:29:28;6.40;;;3.13;;
7031;SDS011;3557;48.880;8.328;2023-06-14T12:31:58;8.23;;;3.20;;
7031;SDS011;3557;48.880;8.328;2023-06-14T12:34:27;6.07;;;3.28;;
7031;SDS011;3557;48.880;8.328;2023-06-14T12:36:56;10.07;;;2.90;;
7031;SDS011;3557;48.880;8.328;2023-06-14T12:39:25;5.80;;;3.08;;
7031;SDS011;3557;48.880;8.328;2023-06-14T12:41:55;5.50;;;3.10;;
7031;SDS011;3557;48.880;8.328;2023-06-14T12:44:27;7.40;;;3.03;;
7031;SDS011;3557;48.880;8.328;2023-06-14T12:46:56;5.90;;;3.10;;
7031;SDS011;3557;48.880;8.328;2023-06-14T12:49:26;4.63;;;3.08;;
7031;SDS011;3557;48.880;8.328;2023-06-14T12:51:57;5.97;;;3.53;;
7031;SDS011;3557;48.880;8.328;2023-06-14T12:54:26;7.88;;;3.50;;
7031;SDS011;3557;48.880;8.328;2023-06-14T12:56:56;7.00;;;3.13;;
7031;SDS011;3557;48.880;8.328;2023-06-14T12:59:25;7.05;;;3.70;;
7031;SDS011;3557;48.880;8.328;2023-06-14T13:02:01;6.03;;;3.47;;
7031;SDS011;3557;48.880;8.328;2023-06-14T13:04:39;7.00;;;3.47;;
7031;SDS011;3557;48.880;8.328;2023-06-14T13:07:08;6.32;;;3.33;;
7031;SDS011;3557;48.880;8.328;2023-06-14T13:09:37;5.97;;;3.20;;
7031;SDS011;3557;48.880;8.328;2023-06-14T13:12:07;5.00;;;3.20;;
7031;SDS011;3557;48.880;8.328;2023-06-14T13:14:38;8.80;;;3.30;;
7031;SDS011;3557;48.880;8.328;2023-06-14T13:17:09;6.75;;;3.40;;
7031;SDS011;3557;48.880;8.328;2023-06-14T13:19:39;8.60;;;3.22;;
7031;SDS011;3557;48.880;8.328;2023-06-14T13:22:11;5.30;;;3.40;;
7031;SDS011;3557;48.880;8.328;2023-06-14T13:24:40;4.03;;;3.28;;
7031;SDS011;3557;48.880;8.328;2023-06-14T13:27:08;5.63;;;3.20;;
7031;SDS011;3557;48.880;8.328;2023-06-14T13:29:38;5.63;;;3.28;;
7031;SDS011;3557;48.880;8.328;2023-06-14T13:32:07;4.22;;;3.22;;
7031;SDS011;3557;48.880;8.328;2023-06-14T13:34:37;6.97;;;3.05;;
7031;SDS011;3557;48.880;8.328;2023-06-14T13:37:08;6.63;;;3.65;;
7031;SDS011;3557;48.880;8.328;2023-06-14T13:39:36;6.28;;;3.05;;
7031;SDS011;3557;48.880;8.328;2023-06-14T13:42:04;4.78;;;3.30;;
7031;SDS011;3557;48.880;8.328;2023-06-14T13:44:33;5.85;;;3.30;;
7031;SDS011;3557;48.880;8.328;2023-06-14T13:47:01;6.50;;;3.40;;
7031;SDS011;3557;48.880;8.328;2023-06-14T13:49:30;8.05;;;3.45;;
7031;SDS011;3557;48.880;8.328;2023-06-14T13:52:00;4.28;;;2.88;;
7031;SDS011;3557;48.880;8.328;2023-06-14T13:54:28;6.95;;;2.80;;
7031;SDS011;3557;48.880;8.328;2023-06-14T13:56:56;5.28;;;3.08;;
7031;SDS011;3557;48.880;8.328;2023-06-14T13:59:23;8.27;;;3.15;;
7031;SDS011;3557;48.880;8.328;2023-06-14T14:01:54;3.53;;;3.08;;
7031;SDS011;3557;48.880;8.328;2023-06-14T14:04:22;5.93;;;3.33;;
7031;SDS011;3557;48.880;8.328;2023-06-14T14:06:53;10.23;;;3.13;;
7031;SDS011;3557;48.880;8.328;2023-06-14T14:09:21;3.15;;;2.67;;
7031;SDS011;3557;48.880;8.328;2023-06-14T14:11:49;9.07;;;3.10;;
7031;SDS011;3557;48.880;8.328;2023-06-14T14:14:16;3.65;;;2.88;;
7031;SDS011;3557;48.880;8.328;2023-06-14T14:16:44;3.58;;;2.80;;
7031;SDS011;3557;48.880;8.328;2023-06-14T14:19:12;5.20;;;3.03;;
7031;SDS011;3557;48.880;8.328;2023-06-14T14:21:40;4.75;;;2.80;;
7031;SDS011;3557;48.880;8.328;2023-06-14T14:24:10;5.70;;;2.88;;
7031;SDS011;3557;48.880;8.328;2023-06-14T14:26:38;4.75;;;2.80;;
7031;SDS011;3557;48.880;8.328;2023-06-14T14:29:06;3.78;;;2.63;;
7031;SDS011;3557;48.880;8.328;2023-06-14T14:31:36;5.00;;;3.33;;
7031;SDS011;3557;48.880;8.328;2023-06-14T14:34:05;3.20;;;2.75;;
7031;SDS011;3557;48.880;8.328;2023-06-14T14:36:33;8.07;;;3.00;;
7031;SDS011;3557;48.880;8.328;2023-06-14T14:39:03;3.97;;;2.83;;
7031;SDS011;3557;48.880;8.328;2023-06-14T14:41:32;5.65;;;2.88;;
7031;SDS011;3557;48.880;8.328;2023-06-14T14:44:00;4.55;;;2.95;;
7031;SDS011;3557;48.880;8.328;2023-06-14T14:46:28;4.18;;;2.90;;
7031;SDS011;3557;48.880;8.328;2023-06-14T14:48:56;4.03;;;2.70;;
7031;SDS011;3557;48.880;8.328;2023-06-14T14:51:25;2.90;;;2.70;;
7031;SDS011;3557;48.880;8.328;2023-06-14T14:53:56;5.32;;;2.80;;
7031;SDS011;3557;48.880;8.328;2023-06-14T14:56:29;4.40;;;2.90;;
7031;SDS011;3557;48.880;8.328;2023-06-14T14:59:00;4.40;;;2.80;;
7031;SDS011;3557;48.880;8.328;2023-06-14T15:01:31;3.40;;;2.67;;
7031;SDS011;3557;48.880;8.328;2023-06-14T15:03:58;5.97;;;2.58;;
7031;SDS011;3557;48.880;8.328;2023-06-14T15:06:30;4.32;;;2.70;;
7031;SDS011;3557;48.880;8.328;2023-06-14T15:09:00;4.45;;;3.00;;
7031;SDS011;3557;48.880;8.328;2023-06-14T15:11:29;5.85;;;2.50;;
7031;SDS011;3557;48.880;8.328;2023-06-14T15:13:58;3.53;;;2.67;;
7031;SDS011;3557;48.880;8.328;2023-06-14T15:16:26;3.72;;;2.88;;
7031;SDS011;3557;48.880;8.328;2023-06-14T15:18:54;4.63;;;2.53;;
7031;SDS011;3557;48.880;8.328;2023-06-14T15:21:22;4.50;;;2.47;;
7031;SDS011;3557;48.880;8.328;2023-06-14T15:23:50;5.30;;;3.05;;
7031;SDS011;3557;48.880;8.328;2023-06-14T15:26:18;4.40;;;2.90;;
7031;SDS011;3557;48.880;8.328;2023-06-14T15:28:48;3.75;;;2.50;;
7031;SDS011;3557;48.880;8.328;2023-06-14T15:31:15;5.57;;;3.17;;